Time;durP1;ratioP1;P1;durP2;ratioP2;P2;SDS_P1;SDS_P2;PMS_P1;PMS_P2;Temp;Humidity;BMP_temperature;BMP_pressure;BME280_temperature;BME280_humidity;BME280_pressure;Samples;Min_cycle;Max_cycle;Signal;HPM_P1;HPM_P2
2024/03/07 00:00:31;;;;;;;15.70;8.03;;;;;;;10.67;100.00;101458.31;2076661;28;20195;-69
2024/03/07 00:01:32;;;;;;;14.57;8.37;;;;;;;10.48;100.00;101433.97;2077435;28;20211;-68
2024/03/07 00:02:33;;;;;;;16.70;8.90;;;;;;;10.62;100.00;101461.56;2077922;28;20612;-68
2024/03/07 00:03:34;;;;;;;14.80;7.93;;;;;;;10.02;100.00;101386.53;2078955;28;20172;-69
2024/03/07 00:04:37;;;;;;;14.93;8.70;;;;;;;10.57;100.00;101456.47;2076112;28;20439;-69
2024/03/07 00:05:39;;;;;;;15.30;8.73;;;;;;;10.61;100.00;101459.97;2076842;28;20208;-69
2024/03/07 00:06:41;;;;;;;13.40;7.70;;;;;;;10.64;100.00;101461.91;2077772;28;20482;-69
2024/03/07 00:07:43;;;;;;;13.47;7.87;;;;;;;10.60;100.00;101461.16;2077552;28;20445;-69
2024/03/07 00:08:43;;;;;;;16.83;8.57;;;;;;;10.55;100.00;101458.84;2081848;28;20493;-69
2024/03/07 00:09:46;;;;;;;14.70;8.73;;;;;;;10.61;100.00;101459.19;2079440;28;20465;-69
2024/03/07 00:10:47;;;;;;;15.47;8.33;;;;;;;10.60;100.00;101449.31;2085475;28;20181;-69
2024/03/07 00:11:48;;;;;;;13.07;8.13;;;;;;;10.62;100.00;101457.97;2078799;28;20832;-69
2024/03/07 00:12:48;;;;;;;16.80;8.33;;;;;;;10.57;100.00;101450.13;2077832;28;20466;-69
2024/03/07 00:13:49;;;;;;;14.63;7.50;;;;;;;10.52;100.00;101440.28;2076698;28;20594;-69
2024/03/07 00:14:50;;;;;;;13.80;7.67;;;;;;;10.59;100.00;101453.25;2077247;28;20722;-69
2024/03/07 00:15:51;;;;;;;16.20;8.23;;;;;;;10.63;100.00;101449.25;2077753;28;20192;-69
2024/03/07 00:16:51;;;;;;;15.30;8.97;;;;;;;10.66;100.00;101451.19;2079010;28;20427;-69
2024/03/07 00:17:52;;;;;;;14.03;8.60;;;;;;;10.64;100.00;101450.03;2076511;28;20184;-69
2024/03/07 00:18:52;;;;;;;15.73;8.60;;;;;;;10.61;100.00;101448.88;2077002;28;20191;-69
2024/03/07 00:19:53;;;;;;;14.63;8.53;;;;;;;10.51;100.00;101443.47;2077671;28;20181;-69
2024/03/07 00:20:54;;;;;;;16.93;8.83;;;;;;;10.61;100.00;101451.63;2077659;28;20607;-69
2024/03/07 00:21:58;;;;;;;20.03;8.30;;;;;;;10.63;100.00;101443.72;2077797;28;20180;-68
2024/03/07 00:22:58;;;;;;;15.37;8.93;;;;;;;10.63;100.00;101454.00;2079784;28;20968;-69
2024/03/07 00:24:00;;;;;;;15.33;8.60;;;;;;;10.60;100.00;101444.53;2076766;28;20836;-69
2024/03/07 00:25:02;;;;;;;14.60;8.50;;;;;;;10.45;100.00;101425.72;2077043;28;20230;-69
2024/03/07 00:26:02;;;;;;;14.07;8.13;;;;;;;10.55;100.00;101435.91;2077553;28;20976;-69
2024/03/07 00:27:03;;;;;;;15.93;9.10;;;;;;;10.64;100.00;101441.72;2079717;28;21122;-69
2024/03/07 00:28:04;;;;;;;14.63;8.30;;;;;;;10.54;100.00;101425.97;2083889;28;20215;-69
2024/03/07 00:29:06;;;;;;;17.53;9.10;;;;;;;10.41;100.00;101414.63;2080013;28;20181;-68
2024/03/07 00:30:08;;;;;;;13.73;8.10;;;;;;;9.53;100.00;101284.56;2077721;28;20280;-69
2024/03/07 00:31:09;;;;;;;17.50;8.60;;;;;;;10.57;100.00;101444.56;2079248;28;20510;-70
2024/03/07 00:32:10;;;;;;;15.10;8.97;;;;;;;10.11;100.00;101375.00;2077509;28;20476;-69
2024/03/07 00:33:10;;;;;;;14.57;8.17;;;;;;;10.43;100.00;101417.81;2076877;28;20455;-69
2024/03/07 00:34:11;;;;;;;15.83;8.37;;;;;;;10.63;100.00;101445.69;2076053;28;20272;-69
2024/03/07 00:35:11;;;;;;;15.37;8.33;;;;;;;10.51;100.00;101435.91;2079959;28;20196;-69
2024/03/07 00:36:12;;;;;;;13.83;8.33;;;;;;;10.32;100.00;101413.56;2077805;28;20616;-69
2024/03/07 00:37:13;;;;;;;16.47;8.07;;;;;;;10.55;100.00;101450.53;2077814;28;20181;-69
2024/03/07 00:38:13;;;;;;;14.07;8.17;;;;;;;10.59;100.00;101451.28;2080797;28;20196;-69
2024/03/07 00:39:14;;;;;;;17.63;8.63;;;;;;;9.97;100.00;101350.19;2076655;28;20268;-69
2024/03/07 00:40:14;;;;;;;12.00;7.87;;;;;;;10.60;100.00;101447.31;2077109;28;20177;-69
2024/03/07 00:41:16;;;;;;;16.30;9.27;;;;;;;10.49;100.00;101440.28;2079943;28;20181;-69
2024/03/07 00:42:17;;;;;;;15.40;8.57;;;;;;;10.57;100.00;101450.91;2079263;28;20564;-69
2024/03/07 00:43:17;;;;;;;13.73;8.37;;;;;;;10.58;100.00;101444.16;2077588;28;20701;-69
2024/03/07 00:44:18;;;;;;;14.47;9.03;;;;;;;10.44;100.00;101437.97;2077086;28;20628;-68
2024/03/07 00:45:18;;;;;;;11.87;7.27;;;;;;;10.27;100.00;101412.03;2077059;28;20577;-69
2024/03/07 00:46:19;;;;;;;15.57;8.47;;;;;;;10.42;100.00;101449.50;2077215;28;20208;-69
2024/03/07 00:47:19;;;;;;;19.13;9.03;;;;;;;10.41;100.00;101447.88;2079216;28;20272;-68
2024/03/07 00:48:20;;;;;;;15.40;9.27;;;;;;;10.38;100.00;101434.88;2078100;28;20251;-69
2024/03/07 00:49:20;;;;;;;15.37;9.07;;;;;;;10.46;100.00;101447.44;2077679;28;20654;-69
2024/03/07 00:50:21;;;;;;;13.70;8.63;;;;;;;10.51;100.00;101449.00;2077742;28;20197;-69
2024/03/07 00:51:21;;;;;;;18.30;9.27;;;;;;;10.51;100.00;101440.69;2076957;28;20280;-69
2024/03/07 00:52:22;;;;;;;16.67;9.30;;;;;;;10.53;100.00;101438.28;2077236;28;20181;-69
2024/03/07 00:53:22;;;;;;;15.17;8.63;;;;;;;10.47;100.00;101434.38;2079829;28;20181;-69
2024/03/07 00:54:23;;;;;;;17.57;9.00;;;;;;;10.44;100.00;101444.31;2076881;28;20303;-69
2024/03/07 00:55:23;;;;;;;19.23;9.70;;;;;;;10.44;100.00;101437.97;2076802;28;20193;-69
2024/03/07 00:56:24;;;;;;;16.73;8.37;;;;;;;10.46;100.00;101436.38;2076834;28;20292;-69
2024/03/07 00:57:25;;;;;;;17.93;9.33;;;;;;;10.44;100.00;101441.53;2076855;28;20201;-68
2024/03/07 00:58:27;;;;;;;16.57;8.90;;;;;;;10.33;100.00;101423.44;2077324;28;20189;-69
2024/03/07 00:59:28;;;;;;;14.27;9.00;;;;;;;10.27;100.00;101427.88;2079170;28;20223;-68
2024/03/07 01:00:28;;;;;;;16.47;8.90;;;;;;;10.26;100.00;101440.16;2078465;28;20427;-69
2024/03/07 01:01:29;;;;;;;17.13;9.13;;;;;;;10.15;100.00;101415.31;2077002;28;20272;-69
2024/03/07 01:02:30;;;;;;;18.23;8.33;;;;;;;10.25;100.00;101433.81;2076669;28;20192;-69
2024/03/07 01:03:30;;;;;;;17.37;8.70;;;;;;;10.23;100.00;101433.44;2077528;28;20637;-69
2024/03/07 01:04:33;;;;;;;15.60;8.07;;;;;;;9.92;100.00;101390.19;2076608;28;20204;-69
2024/03/07 01:05:33;;;;;;;12.33;8.17;;;;;;;10.28;100.00;101432.19;2086369;28;20181;-69
2024/03/07 01:06:36;;;;;;;15.63;8.43;;;;;;;10.34;100.00;101434.13;2079004;28;20509;-68
2024/03/07 01:07:37;;;;;;;13.37;8.50;;;;;;;10.37;100.00;101444.41;2077087;28;20183;-68
2024/03/07 01:08:38;;;;;;;18.43;8.87;;;;;;;10.31;100.00;101436.94;2077530;28;20509;-69
2024/03/07 01:09:38;;;;;;;17.93;9.13;;;;;;;10.30;100.00;101432.59;2078522;28;20246;-69
2024/03/07 01:10:39;;;;;;;18.33;9.23;;;;;;;10.35;100.00;101440.47;2083025;28;20432;-68
2024/03/07 01:11:42;;;;;;;16.27;8.90;;;;;;;10.37;100.00;101441.63;2077462;28;20185;-69
2024/03/07 01:12:43;;;;;;;17.80;8.33;;;;;;;10.38;100.00;101443.19;2079366;28;20650;-69
2024/03/07 01:13:43;;;;;;;12.43;8.13;;;;;;;10.26;100.00;101440.16;2076450;28;20451;-69
2024/03/07 01:14:45;;;;;;;16.83;8.70;;;;;;;10.10;100.00;101429.59;2076727;28;20217;-69
2024/03/07 01:15:46;;;;;;;17.70;8.53;;;;;;;10.26;100.00;101443.69;2077425;28;20409;-68
2024/03/07 01:16:47;;;;;;;18.80;9.23;;;;;;;10.36;100.00;101447.56;2076974;28;20930;-68
2024/03/07 01:17:47;;;;;;;13.83;8.07;;;;;;;10.33;100.00;101449.19;2076550;28;20657;-69
2024/03/07 01:18:49;;;;;;;15.47;8.97;;;;;;;10.22;100.00;101437.41;2079571;28;20185;-69
2024/03/07 01:19:49;;;;;;;17.73;8.93;;;;;;;9.16;100.00;101267.09;2076557;28;20191;-68
2024/03/07 01:20:50;;;;;;;12.30;7.80;;;;;;;10.34;100.00;101438.88;2077383;28;20449;-69
2024/03/07 01:21:50;;;;;;;14.73;8.53;;;;;;;10.39;100.00;101439.22;2077455;28;20201;-68
2024/03/07 01:22:54;;;;;;;14.63;8.17;;;;;;;10.46;100.00;101438.38;2077467;28;20196;-68
2024/03/07 01:23:54;;;;;;;13.47;8.77;;;;;;;10.43;100.00;101442.75;2076735;28;20558;-68
2024/03/07 01:24:54;;;;;;;14.47;8.63;;;;;;;9.35;100.00;101272.88;2079331;28;20443;-69
2024/03/07 01:25:56;;;;;;;16.63;8.67;;;;;;;10.43;100.00;101444.72;2076809;28;20572;-69
2024/03/07 01:26:57;;;;;;;16.70;8.90;;;;;;;10.38;100.00;101434.88;2077073;28;20695;-68
2024/03/07 01:27:57;;;;;;;16.90;8.63;;;;;;;10.38;100.00;101443.19;2076242;28;20799;-68
2024/03/07 01:28:58;;;;;;;14.03;8.60;;;;;;;10.34;100.00;101431.34;2076475;28;20205;-69
2024/03/07 01:29:58;;;;;;;13.83;8.57;;;;;;;10.35;100.00;101434.91;2076978;28;20750;-69
2024/03/07 01:30:59;;;;;;;14.87;8.33;;;;;;;10.40;100.00;101437.25;2079708;28;20203;-69
2024/03/07 01:31:59;;;;;;;12.87;7.80;;;;;;;10.33;100.00;101435.31;2076934;28;20671;-69
2024/03/07 01:33:00;;;;;;;11.23;8.07;;;;;;;10.32;100.00;101432.97;2076893;28;20775;-69
2024/03/07 01:34:00;;;;;;;13.00;7.97;;;;;;;10.14;100.00;101405.44;2075748;28;20196;-69
2024/03/07 01:35:01;;;;;;;14.63;8.70;;;;;;;10.42;100.00;101440.38;2076303;28;22061;-69
2024/03/07 01:36:02;;;;;;;16.53;9.50;;;;;;;10.35;100.00;101434.91;2077219;28;20205;-69
2024/03/07 01:37:02;;;;;;;16.77;8.87;;;;;;;10.21;100.00;101427.53;2079636;28;20180;-69
2024/03/07 01:38:03;;;;;;;11.53;7.63;;;;;;;10.42;100.00;101434.84;2077108;28;20189;-69
2024/03/07 01:39:03;;;;;;;17.30;8.73;;;;;;;10.39;100.00;101438.41;2077326;28;20181;-69
2024/03/07 01:40:05;;;;;;;12.50;8.20;;;;;;;10.34;100.00;101438.88;2076194;28;20193;-68
2024/03/07 01:41:05;;;;;;;15.47;9.30;;;;;;;10.27;100.00;101434.19;2076925;28;27169;-69
2024/03/07 01:42:08;;;;;;;16.50;8.27;;;;;;;10.36;100.00;101436.50;2076418;28;20427;-69
2024/03/07 01:43:10;;;;;;;15.40;8.07;;;;;;;10.36;100.00;101434.47;2078827;28;20658;-69
2024/03/07 01:44:10;;;;;;;15.40;8.33;;;;;;;10.37;100.00;101435.28;2078113;28;20510;-69
2024/03/07 01:45:11;;;;;;;13.70;8.10;;;;;;;10.38;100.00;101439.63;2076911;28;20490;-69
2024/03/07 01:46:12;;;;;;;15.43;7.90;;;;;;;10.32;100.00;101436.53;2077204;28;20191;-69
2024/03/07 01:47:15;;;;;;;16.23;8.00;;;;;;;10.30;100.00;101432.59;2077049;28;20251;-69
2024/03/07 01:48:25;;;;;;;14.43;8.57;;;;;;;10.28;100.00;101434.97;2077061;28;20891;-69
2024/03/07 01:49:26;;;;;;;14.07;8.13;;;;;;;10.29;100.00;101434.56;2077070;28;20814;-69
2024/03/07 01:50:26;;;;;;;15.47;8.13;;;;;;;10.20;100.00;101431.47;2077976;28;20420;-68
2024/03/07 01:51:27;;;;;;;17.20;8.23;;;;;;;9.52;100.00;101340.31;2077976;28;20306;-69
2024/03/07 01:52:28;;;;;;;12.90;8.03;;;;;;;9.63;100.00;101352.09;2077068;28;20228;-69
2024/03/07 01:53:30;;;;;;;17.00;8.00;;;;;;;9.33;100.00;101321.50;2076517;28;20199;-69
2024/03/07 01:54:32;;;;;;;16.50;8.27;;;;;;;9.00;100.00;101286.19;2075747;28;20458;-69
2024/03/07 01:55:33;;;;;;;13.60;8.03;;;;;;;9.07;100.00;101275.09;2081991;28;20437;-69
2024/03/07 01:56:36;;;;;;;14.23;8.60;;;;;;;10.00;100.00;101429.69;2076848;28;20447;-69
2024/03/07 01:57:36;;;;;;;11.63;8.00;;;;;;;9.98;100.00;101432.84;2079737;28;20952;-69
2024/03/07 01:58:37;;;;;;;13.17;7.07;;;;;;;9.94;100.00;101431.31;2077144;28;20815;-69
2024/03/07 01:59:37;;;;;;;13.57;7.73;;;;;;;9.88;100.00;101428.19;2076830;28;20665;-69
2024/03/07 02:00:38;;;;;;;14.67;7.40;;;;;;;9.77;100.00;101433.03;2077168;28;20262;-69
2024/03/07 02:01:39;;;;;;;12.53;7.40;;;;;;;9.76;100.00;101430.66;2077241;28;20208;-69
2024/03/07 02:02:39;;;;;;;13.53;7.87;;;;;;;9.76;100.00;101427.88;2076625;28;20195;-69
2024/03/07 02:03:40;;;;;;;15.03;8.13;;;;;;;9.78;100.00;101423.53;2079204;28;20200;-69
2024/03/07 02:04:40;;;;;;;13.20;7.63;;;;;;;9.80;100.00;101420.34;2077176;28;20212;-69
2024/03/07 02:05:41;;;;;;;13.03;8.20;;;;;;;9.76;100.00;101406.53;2076925;28;20204;-69
2024/03/07 02:06:42;;;;;;;14.03;7.87;;;;;;;9.90;100.00;101425.78;2077338;28;20745;-69
2024/03/07 02:07:43;;;;;;;11.60;7.73;;;;;;;9.97;100.00;101422.97;2076847;28;20185;-69
2024/03/07 02:08:44;;;;;;;12.57;7.77;;;;;;;9.96;100.00;101423.38;2082299;28;20205;-69
2024/03/07 02:09:44;;;;;;;13.90;7.50;;;;;;;9.94;100.00;101426.53;2080240;28;20511;-69
2024/03/07 02:10:46;;;;;;;12.40;7.13;;;;;;;9.96;100.00;101426.16;2078597;28;20230;-69
2024/03/07 02:11:49;;;;;;;16.50;8.27;;;;;;;9.38;100.00;101337.66;2078588;28;20220;-69
2024/03/07 02:12:50;;;;;;;14.47;7.47;;;;;;;9.81;100.00;101422.72;2078871;28;20541;-69
2024/03/07 02:13:51;;;;;;;12.37;7.50;;;;;;;9.69;100.00;101425.19;2078859;28;21174;-69
2024/03/07 02:14:51;;;;;;;13.27;7.27;;;;;;;9.63;100.00;101410.22;2077298;28;20254;-69
2024/03/07 02:15:53;;;;;;;15.40;8.00;;;;;;;9.56;100.00;101418.53;2080721;28;20428;-69
2024/03/07 02:16:56;;;;;;;15.60;7.13;;;;;;;8.58;100.00;101261.59;2078820;28;20231;-69
2024/03/07 02:17:57;;;;;;;13.60;7.30;;;;;;;9.71;100.00;101425.56;2078578;28;20442;-69
2024/03/07 02:18:59;;;;;;;14.67;7.80;;;;;;;9.65;100.00;101422.44;2078198;28;20451;-69
2024/03/07 02:20:00;;;;;;;12.07;7.23;;;;;;;9.55;100.00;101403.16;2078250;28;20450;-69
2024/03/07 02:21:00;;;;;;;12.10;7.30;;;;;;;9.46;100.00;101395.31;2078754;28;20424;-69
2024/03/07 02:22:01;;;;;;;12.67;7.73;;;;;;;9.58;100.00;101425.25;2078799;28;20185;-69
2024/03/07 02:23:02;;;;;;;11.30;7.53;;;;;;;9.49;100.00;101421.38;2080462;28;20185;-69
2024/03/07 02:24:03;;;;;;;14.27;7.67;;;;;;;9.34;100.00;101417.13;2076993;28;20188;-69
2024/03/07 02:25:04;;;;;;;13.60;7.57;;;;;;;9.39;100.00;101417.47;2078743;28;20446;-69
2024/03/07 02:26:04;;;;;;;14.87;7.90;;;;;;;9.42;100.00;101422.19;2078918;28;20208;-69
2024/03/07 02:27:05;;;;;;;13.87;7.00;;;;;;;9.34;100.00;101419.88;2078212;28;20416;-69
2024/03/07 02:28:06;;;;;;;14.67;8.13;;;;;;;9.30;100.00;101414.38;2078356;28;20556;-69
2024/03/07 02:29:07;;;;;;;14.07;7.63;;;;;;;9.31;100.00;101407.66;2080995;28;20187;-70
2024/03/07 02:30:08;;;;;;;17.10;7.90;;;;;;;9.44;100.00;101422.56;2078451;28;22502;-69
2024/03/07 02:31:09;;;;;;;12.57;7.83;;;;;;;9.41;100.00;101422.59;2078518;28;20194;-69
2024/03/07 02:32:09;;;;;;;14.90;7.63;;;;;;;9.48;100.00;101431.63;2077591;28;20483;-69
2024/03/07 02:33:11;;;;;;;15.73;8.10;;;;;;;9.56;100.00;101424.09;2078913;28;20275;-69
2024/03/07 02:34:12;;;;;;;15.20;8.30;;;;;;;9.58;100.00;101430.00;2077766;28;20183;-69
2024/03/07 02:35:15;;;;;;;12.93;7.43;;;;;;;9.63;100.00;101433.13;2080696;28;20561;-70
2024/03/07 02:36:16;;;;;;;10.90;7.10;;;;;;;9.61;100.00;101423.66;2078420;28;20291;-69
2024/03/07 02:37:16;;;;;;;12.60;7.20;;;;;;;9.58;100.00;101424.47;2079345;28;20961;-69
2024/03/07 02:38:17;;;;;;;13.43;7.87;;;;;;;9.57;100.00;101426.44;2082180;28;20195;-69
2024/03/07 02:39:18;;;;;;;16.37;7.73;;;;;;;9.60;100.00;101427.63;2078850;28;20284;-70
2024/03/07 02:40:18;;;;;;;11.43;6.97;;;;;;;9.64;100.00;101426.38;2078337;28;20420;-69
2024/03/07 02:41:19;;;;;;;12.37;7.17;;;;;;;9.67;100.00;101427.56;2080821;28;20181;-70
2024/03/07 02:42:19;;;;;;;10.60;6.00;;;;;;;9.18;100.00;101354.00;2078705;28;20601;-70
2024/03/07 02:43:21;;;;;;;10.90;6.83;;;;;;;9.54;100.00;101427.25;2078431;28;20207;-70
2024/03/07 02:44:21;;;;;;;17.47;7.33;;;;;;;9.46;100.00;101427.72;2077385;28;20284;-70
2024/03/07 02:45:22;;;;;;;12.87;7.40;;;;;;;9.36;100.00;101415.53;2078672;28;20554;-69
2024/03/07 02:46:22;;;;;;;11.30;6.97;;;;;;;9.42;100.00;101429.69;2078023;28;20215;-69
2024/03/07 02:47:23;;;;;;;12.23;7.10;;;;;;;9.34;100.00;101425.41;2080761;28;20484;-69
2024/03/07 02:48:24;;;;;;;12.60;7.33;;;;;;;9.32;100.00;101427.81;2078251;28;20666;-69
2024/03/07 02:49:24;;;;;;;10.73;7.07;;;;;;;9.17;100.00;101409.72;2078020;28;20657;-69
2024/03/07 02:50:25;;;;;;;12.57;6.93;;;;;;;9.12;100.00;101405.38;2078276;28;20200;-69
2024/03/07 02:51:25;;;;;;;12.87;7.03;;;;;;;9.14;100.00;101422.38;2078645;28;20269;-69
2024/03/07 02:52:26;;;;;;;11.77;6.53;;;;;;;9.24;100.00;101434.56;2078248;28;20184;-69
2024/03/07 02:53:26;;;;;;;14.87;6.90;;;;;;;9.17;100.00;101431.84;2080697;28;20184;-69
2024/03/07 02:54:27;;;;;;;12.33;7.10;;;;;;;9.16;100.00;101422.75;2077408;28;20253;-69
2024/03/07 02:55:27;;;;;;;15.63;6.80;;;;;;;9.18;100.00;101416.84;2078257;28;20192;-69
2024/03/07 02:56:28;;;;;;;14.37;6.53;;;;;;;9.30;100.00;101435.72;2078102;28;20558;-69
2024/03/07 02:57:28;;;;;;;11.27;6.63;;;;;;;9.17;100.00;101418.78;2083262;28;20672;-69
2024/03/07 02:58:29;;;;;;;14.87;6.97;;;;;;;9.22;100.00;101432.19;2077848;28;20191;-69
2024/03/07 02:59:29;;;;;;;14.73;7.73;;;;;;;9.18;100.00;101439.72;2080768;28;20212;-69
2024/03/07 03:00:30;;;;;;;12.10;7.03;;;;;;;9.25;100.00;101436.13;2078116;28;20193;-69
2024/03/07 03:01:30;;;;;;;12.70;6.90;;;;;;;9.24;100.00;101432.59;2078058;28;20215;-69
2024/03/07 03:02:31;;;;;;;12.57;7.13;;;;;;;9.31;100.00;101440.03;2078362;28;20185;-69
2024/03/07 03:03:32;;;;;;;12.87;6.77;;;;;;;9.15;100.00;101414.84;2077233;28;20184;-69
2024/03/07 03:04:33;;;;;;;11.53;7.27;;;;;;;9.02;100.00;101383.34;2077094;28;20199;-69
2024/03/07 03:05:33;;;;;;;11.53;6.73;;;;;;;9.04;100.00;101373.47;2080385;28;20653;-69
2024/03/07 03:06:34;;;;;;;14.23;7.13;;;;;;;9.36;100.00;101437.66;2077975;28;20958;-69
2024/03/07 03:07:34;;;;;;;10.73;7.27;;;;;;;9.32;100.00;101436.88;2078413;28;20661;-69
2024/03/07 03:08:35;;;;;;;11.27;6.57;;;;;;;9.32;100.00;101431.34;2079903;28;20198;-69
2024/03/07 03:09:39;;;;;;;13.27;6.40;;;;;;;9.29;100.00;101439.69;2078444;28;20183;-69
2024/03/07 03:10:41;;;;;;;10.77;6.83;;;;;;;9.24;100.00;101435.38;2077523;28;20277;-69
2024/03/07 03:11:41;;;;;;;14.20;6.80;;;;;;;9.13;100.00;101431.06;2080608;28;20945;-69
2024/03/07 03:12:42;;;;;;;8.93;5.63;;;;;;;9.04;100.00;101433.47;2077690;28;21144;-69
2024/03/07 03:13:43;;;;;;;12.53;8.00;;;;;;;8.93;100.00;101419.72;2077648;28;20658;-69
2024/03/07 03:14:43;;;;;;;11.97;7.50;;;;;;;8.99;100.00;101437.47;2078185;28;20216;-69
2024/03/07 03:15:44;;;;;;;10.83;6.70;;;;;;;8.17;100.00;101313.03;2077915;28;20316;-69
2024/03/07 03:16:44;;;;;;;9.13;5.80;;;;;;;8.62;100.00;101368.13;2077764;28;20219;-69
2024/03/07 03:17:46;;;;;;;11.50;7.03;;;;;;;9.07;100.00;101429.94;2080649;28;20276;-69
2024/03/07 03:18:48;;;;;;;16.07;7.07;;;;;;;9.12;100.00;101435.81;2079337;28;20194;-70
2024/03/07 03:19:50;;;;;;;9.30;5.57;;;;;;;9.16;100.00;101433.03;2077774;28;20435;-69
2024/03/07 03:20:52;;;;;;;9.57;6.07;;;;;;;9.03;100.00;101416.09;2077434;28;20448;-70
2024/03/07 03:21:52;;;;;;;11.00;6.40;;;;;;;9.11;100.00;101430.69;2077514;28;20448;-69
2024/03/07 03:22:53;;;;;;;10.47;6.17;;;;;;;8.97;100.00;101419.69;2077831;28;20936;-69
2024/03/07 03:23:54;;;;;;;10.60;5.73;;;;;;;9.20;100.00;101445.66;2077223;28;20681;-69
2024/03/07 03:24:55;;;;;;;12.53;6.93;;;;;;;9.19;100.00;101435.78;2080124;28;20203;-69
2024/03/07 03:25:56;;;;;;;11.07;6.20;;;;;;;9.27;100.00;101437.31;2078027;28;20451;-70
2024/03/07 03:26:56;;;;;;;10.73;6.00;;;;;;;9.28;100.00;101441.66;2077723;28;20198;-70
2024/03/07 03:27:57;;;;;;;9.73;5.90;;;;;;;9.28;100.00;101440.88;2077385;28;20189;-69
2024/03/07 03:28:58;;;;;;;9.60;6.10;;;;;;;9.23;100.00;101441.28;2077373;28;20676;-70
2024/03/07 03:30:00;;;;;;;10.03;6.17;;;;;;;9.10;100.00;101440.16;2078128;28;20423;-69
2024/03/07 03:31:00;;;;;;;11.30;6.90;;;;;;;9.02;100.00;101433.13;2080416;28;20181;-70
2024/03/07 03:32:01;;;;;;;8.90;5.80;;;;;;;9.05;100.00;101435.84;2077609;28;20506;-70
2024/03/07 03:33:02;;;;;;;9.60;5.57;;;;;;;9.03;100.00;101440.22;2077795;28;20278;-69
2024/03/07 03:34:02;;;;;;;10.80;6.90;;;;;;;9.09;100.00;101438.59;2077573;28;20197;-69
2024/03/07 03:35:03;;;;;;;11.53;6.13;;;;;;;8.97;100.00;101430.75;2077339;28;20289;-69
2024/03/07 03:36:04;;;;;;;10.07;5.90;;;;;;;8.98;100.00;101435.88;2077725;28;20177;-69
2024/03/07 03:37:04;;;;;;;10.30;5.33;;;;;;;8.94;100.00;101437.09;2080398;28;20197;-69
2024/03/07 03:38:06;;;;;;;10.03;5.93;;;;;;;8.98;100.00;101438.63;2078297;28;20279;-69
2024/03/07 03:39:07;;;;;;;11.30;6.57;;;;;;;8.79;100.00;101394.09;2080728;28;20184;-69
2024/03/07 03:40:09;;;;;;;9.03;6.13;;;;;;;9.01;100.00;101432.31;2077764;28;20976;-69
2024/03/07 03:41:15;;;;;;;9.87;5.93;;;;;;;8.91;100.00;101432.38;2076780;28;20201;-69
2024/03/07 03:42:16;;;;;;;9.40;5.47;;;;;;;8.33;100.00;101366.66;2077741;28;20518;-69
2024/03/07 03:43:16;;;;;;;11.93;6.03;;;;;;;8.81;100.00;101438.72;2078944;28;20485;-69
2024/03/07 03:44:17;;;;;;;9.10;5.83;;;;;;;8.84;100.00;101430.41;2078710;28;20197;-69
2024/03/07 03:45:18;;;;;;;10.00;5.67;;;;;;;8.80;100.00;101434.38;2077431;28;20740;-70
2024/03/07 03:46:18;;;;;;;11.37;6.50;;;;;;;8.75;100.00;101438.34;2077589;28;20310;-69
2024/03/07 03:47:19;;;;;;;11.53;6.07;;;;;;;8.74;100.00;101438.75;2077833;28;20443;-69
2024/03/07 03:48:20;;;;;;;9.43;5.73;;;;;;;8.72;100.00;101438.38;2077512;28;20487;-69
2024/03/07 03:49:20;;;;;;;9.03;6.10;;;;;;;8.73;100.00;101442.69;2078589;28;20426;-69
2024/03/07 03:50:24;;;;;;;8.30;5.37;;;;;;;8.01;100.00;101335.56;2085981;28;20668;-69
2024/03/07 03:51:25;;;;;;;9.70;5.97;;;;;;;8.80;100.00;101435.16;2077253;28;20209;-69
2024/03/07 03:52:26;;;;;;;11.03;5.87;;;;;;;8.72;100.00;101430.06;2077159;28;20445;-70
2024/03/07 03:53:26;;;;;;;9.87;5.97;;;;;;;8.18;100.00;101358.78;2077979;28;20191;-69
2024/03/07 03:54:28;;;;;;;11.50;6.03;;;;;;;8.76;100.00;101444.66;2076878;28;20439;-69
2024/03/07 03:55:28;;;;;;;9.70;6.30;;;;;;;8.85;100.00;101445.00;2077842;28;20177;-69
2024/03/07 03:56:29;;;;;;;10.30;5.70;;;;;;;8.70;100.00;101437.94;2079952;28;20424;-69
2024/03/07 03:57:30;;;;;;;9.93;5.53;;;;;;;8.67;100.00;101436.78;2078216;28;20200;-69
2024/03/07 03:58:31;;;;;;;11.07;5.83;;;;;;;8.67;100.00;101438.78;2077569;28;20193;-69
2024/03/07 03:59:31;;;;;;;10.90;5.77;;;;;;;8.67;100.00;101438.78;2077826;28;20438;-69
2024/03/07 04:00:32;;;;;;;11.53;5.97;;;;;;;8.49;100.00;101413.16;2077120;28;20189;-69
2024/03/07 04:01:32;;;;;;;10.83;6.10;;;;;;;8.08;100.00;101335.53;2077659;28;20181;-70
2024/03/07 04:02:33;;;;;;;12.70;5.50;;;;;;;8.38;100.00;101385.59;2079953;28;20659;-70
2024/03/07 04:03:33;;;;;;;11.77;5.93;;;;;;;8.87;100.00;101439.88;2077668;28;20220;-69
2024/03/07 04:04:34;;;;;;;11.20;6.43;;;;;;;8.95;100.00;101439.44;2077370;28;20199;-69
2024/03/07 04:05:34;;;;;;;9.17;6.03;;;;;;;8.41;100.00;101368.19;2077963;28;20189;-70
2024/03/07 04:06:35;;;;;;;9.23;5.80;;;;;;;8.68;100.00;101415.47;2077043;28;20545;-70
2024/03/07 04:07:36;;;;;;;9.07;5.90;;;;;;;8.50;100.00;101392.66;2077702;28;20599;-69
2024/03/07 04:08:37;;;;;;;9.53;5.47;;;;;;;8.85;100.00;101442.25;2086095;28;22289;-69
2024/03/07 04:09:38;;;;;;;9.73;6.13;;;;;;;8.89;100.00;101443.03;2077694;28;20851;-69
2024/03/07 04:10:39;;;;;;;10.03;6.17;;;;;;;8.39;100.00;101367.03;2077099;28;20820;-70
2024/03/07 04:11:39;;;;;;;12.80;6.50;;;;;;;8.31;100.00;101348.91;2077902;28;20205;-69
2024/03/07 04:12:41;;;;;;;11.23;6.37;;;;;;;9.06;100.00;101448.47;2076499;28;20580;-70
2024/03/07 04:13:41;;;;;;;10.80;6.13;;;;;;;9.07;100.00;101452.81;2077342;28;20174;-69
2024/03/07 04:14:45;;;;;;;9.40;6.10;;;;;;;9.00;100.00;101457.59;2079664;28;21165;-69
2024/03/07 04:15:45;;;;;;;10.67;5.63;;;;;;;8.96;100.00;101441.03;2077549;28;20210;-70
2024/03/07 04:16:46;;;;;;;10.93;6.73;;;;;;;9.01;100.00;101456.41;2076790;28;20447;-69
2024/03/07 04:17:46;;;;;;;10.43;6.30;;;;;;;9.08;100.00;101456.38;2077106;28;20186;-70
2024/03/07 04:18:47;;;;;;;9.53;5.40;;;;;;;8.98;100.00;101452.47;2077650;28;20734;-70
2024/03/07 04:19:48;;;;;;;8.70;5.80;;;;;;;8.98;100.00;101455.22;2077641;28;20663;-69
2024/03/07 04:20:49;;;;;;;9.87;5.87;;;;;;;8.91;100.00;101451.72;2079986;28;20184;-69
2024/03/07 04:21:49;;;;;;;9.90;5.67;;;;;;;8.99;100.00;101456.81;2077300;28;20208;-70
2024/03/07 04:22:50;;;;;;;9.67;6.00;;;;;;;8.99;100.00;101456.03;2076517;28;20244;-69
2024/03/07 04:23:51;;;;;;;11.47;5.80;;;;;;;9.01;100.00;101446.13;2076459;28;20335;-69
2024/03/07 04:24:54;;;;;;;11.03;6.20;;;;;;;9.09;100.00;101455.19;2077807;28;20978;-69
2024/03/07 04:25:56;;;;;;;12.90;6.23;;;;;;;8.28;100.00;101336.69;2077404;28;20431;-69
2024/03/07 04:26:56;;;;;;;10.97;6.30;;;;;;;9.00;100.00;101455.63;2079069;28;20458;-69
2024/03/07 04:27:58;;;;;;;10.87;6.37;;;;;;;8.91;100.00;101457.25;2079091;28;20424;-69
2024/03/07 04:28:58;;;;;;;11.40;6.20;;;;;;;8.88;100.00;101450.56;2077722;28;20688;-70
2024/03/07 04:29:59;;;;;;;9.87;6.03;;;;;;;8.89;100.00;101456.84;2076878;28;20942;-69
2024/03/07 04:30:59;;;;;;;11.27;6.57;;;;;;;8.86;100.00;101466.72;2077735;28;20736;-69
2024/03/07 04:32:01;;;;;;;12.27;7.17;;;;;;;8.81;100.00;101450.56;2076655;28;20236;-69
2024/03/07 04:33:02;;;;;;;10.83;6.13;;;;;;;8.85;100.00;101462.41;2077875;28;20580;-69
2024/03/07 04:34:02;;;;;;;13.70;5.87;;;;;;;8.89;100.00;101460.41;2077675;28;20489;-69
2024/03/07 04:35:10;;;;;;;10.50;6.10;;;;;;;8.99;100.00;101464.31;2076516;28;20291;-69
2024/03/07 04:36:12;;;;;;;10.67;6.00;;;;;;;8.95;100.00;101460.78;2077218;28;20643;-69
2024/03/07 04:37:12;;;;;;;13.33;6.17;;;;;;;8.57;100.00;101401.69;2077263;28;20435;-69
2024/03/07 04:38:14;;;;;;;10.13;5.97;;;;;;;8.90;100.00;101456.44;2082575;28;20956;-69
2024/03/07 04:39:32;;;;;;;11.33;6.43;;;;;;;8.90;100.00;101461.19;2077831;28;20192;-70